sensor_id;sensor_type;location;lat;lon;timestamp;pressure;altitude;pressure_sealevel;temperature;humidity
4814;BME280;15375;48.540;9.268;2024-01-30T00:02:11;98703.31;;;2.03;100.00
4814;BME280;15375;48.540;9.268;2024-01-30T00:04:36;98633.41;;;1.53;100.00
4814;BME280;15375;48.540;9.268;2024-01-30T00:07:01;98692.97;;;1.84;100.00
4814;BME280;15375;48.540;9.268;2024-01-30T00:09:27;98685.41;;;1.86;100.00
4814;BME280;15375;48.540;9.268;2024-01-30T00:11:52;98696.09;;;1.94;100.00
4814;BME280;15375;48.540;9.268;2024-01-30T00:14:17;98708.03;;;2.06;100.00
4814;BME280;15375;48.540;9.268;2024-01-30T00:16:44;98673.69;;;1.82;100.00
4814;BME280;15375;48.540;9.268;2024-01-30T00:19:09;98698.38;;;2.05;100.00
4814;BME280;15375;48.540;9.268;2024-01-30T00:21:34;98687.56;;;1.92;100.00
4814;BME280;15375;48.540;9.268;2024-01-30T00:24:00;98698.13;;;1.98;100.00
4814;BME280;15375;48.540;9.268;2024-01-30T00:26:25;98698.56;;;2.00;100.00
4814;BME280;15375;48.540;9.268;2024-01-30T00:28:50;98681.13;;;1.85;100.00
4814;BME280;15375;48.540;9.268;2024-01-30T00:31:16;98688.84;;;1.86;100.00
4814;BME280;15375;48.540;9.268;2024-01-30T00:33:41;98708.28;;;1.92;100.00
4814;BME280;15375;48.540;9.268;2024-01-30T00:36:08;98687.41;;;1.68;100.00
4814;BME280;15375;48.540;9.268;2024-01-30T00:38:34;98707.41;;;1.79;100.00
4814;BME280;15375;48.540;9.268;2024-01-30T00:41:00;98701.84;;;1.84;100.00
4814;BME280;15375;48.540;9.268;2024-01-30T00:43:27;98692.22;;;1.83;100.00
4814;BME280;15375;48.540;9.268;2024-01-30T00:45:52;98696.66;;;1.79;100.00
4814;BME280;15375;48.540;9.268;2024-01-30T00:48:18;98701.84;;;1.84;100.00
4814;BME280;15375;48.540;9.268;2024-01-30T00:50:43;98708.94;;;1.89;100.00
4814;BME280;15375;48.540;9.268;2024-01-30T00:53:09;98683.22;;;1.79;100.00
4814;BME280;15375;48.540;9.268;2024-01-30T00:55:35;98696.72;;;1.91;100.00
4814;BME280;15375;48.540;9.268;2024-01-30T00:58:00;98692.13;;;1.92;100.00
4814;BME280;15375;48.540;9.268;2024-01-30T01:00:26;98711.19;;;2.08;100.00
4814;BME280;15375;48.540;9.268;2024-01-30T01:02:57;98685.72;;;1.84;100.00
4814;BME280;15375;48.540;9.268;2024-01-30T01:05:22;98681.78;;;1.82;100.00
4814;BME280;15375;48.540;9.268;2024-01-30T01:07:48;98719.56;;;1.85;100.00
4814;BME280;15375;48.540;9.268;2024-01-30T01:10:14;98718.63;;;1.81;100.00
4814;BME280;15375;48.540;9.268;2024-01-30T01:12:39;98718.94;;;1.88;100.00
4814;BME280;15375;48.540;9.268;2024-01-30T01:15:05;98696.72;;;1.71;100.00
4814;BME280;15375;48.540;9.268;2024-01-30T01:17:34;98680.81;;;1.57;100.00
4814;BME280;15375;48.540;9.268;2024-01-30T01:20:00;98716.44;;;1.83;100.00
4814;BME280;15375;48.540;9.268;2024-01-30T01:22:25;98703.16;;;1.78;100.00
4814;BME280;15375;48.540;9.268;2024-01-30T01:24:50;98705.00;;;1.86;100.00
4814;BME280;15375;48.540;9.268;2024-01-30T01:27:16;98713.22;;;1.90;100.00
4814;BME280;15375;48.540;9.268;2024-01-30T01:29:41;98709.72;;;1.89;100.00
4814;BME280;15375;48.540;9.268;2024-01-30T01:32:06;98708.25;;;1.71;100.00
4814;BME280;15375;48.540;9.268;2024-01-30T01:34:32;98697.09;;;1.61;100.00
4814;BME280;15375;48.540;9.268;2024-01-30T01:36:57;98698.16;;;1.68;100.00
4814;BME280;15375;48.540;9.268;2024-01-30T01:39:23;98698.03;;;1.65;100.00
4814;BME280;15375;48.540;9.268;2024-01-30T01:41:49;98699.88;;;1.73;100.00
4814;BME280;15375;48.540;9.268;2024-01-30T01:44:14;98705.88;;;1.78;100.00
4814;BME280;15375;48.540;9.268;2024-01-30T01:46:40;98709.91;;;1.84;100.00
4814;BME280;15375;48.540;9.268;2024-01-30T01:49:06;98692.00;;;1.68;100.00
4814;BME280;15375;48.540;9.268;2024-01-30T01:51:33;98709.81;;;1.81;100.00
4814;BME280;15375;48.540;9.268;2024-01-30T01:54:03;98713.75;;;1.83;100.00
4814;BME280;15375;48.540;9.268;2024-01-30T01:56:30;98709.00;;;1.80;100.00
4814;BME280;15375;48.540;9.268;2024-01-30T01:59:00;98706.50;;;1.75;100.00
4814;BME280;15375;48.540;9.268;2024-01-30T02:01:26;98674.66;;;1.57;100.00
4814;BME280;15375;48.540;9.268;2024-01-30T02:03:52;98687.72;;;1.67;100.00
4814;BME280;15375;48.540;9.268;2024-01-30T02:06:18;98685.09;;;1.79;100.00
4814;BME280;15375;48.540;9.268;2024-01-30T02:08:44;98695.16;;;1.90;100.00
4814;BME280;15375;48.540;9.268;2024-01-30T02:11:10;98674.34;;;2.00;100.00
4814;BME280;15375;48.540;9.268;2024-01-30T02:13:36;98683.38;;;2.04;100.00
4814;BME280;15375;48.540;9.268;2024-01-30T02:16:02;98704.09;;;2.24;100.00
4814;BME280;15375;48.540;9.268;2024-01-30T02:18:27;98701.63;;;2.19;100.00
4814;BME280;15375;48.540;9.268;2024-01-30T02:20:54;98703.81;;;2.17;100.00
4814;BME280;15375;48.540;9.268;2024-01-30T02:23:23;98690.97;;;2.02;100.00
4814;BME280;15375;48.540;9.268;2024-01-30T02:25:49;98688.59;;;2.00;100.00
4814;BME280;15375;48.540;9.268;2024-01-30T02:28:15;98705.34;;;2.06;100.00
4814;BME280;15375;48.540;9.268;2024-01-30T02:30:42;98682.22;;;1.84;100.00
4814;BME280;15375;48.540;9.268;2024-01-30T02:33:08;98692.78;;;1.89;100.00
4814;BME280;15375;48.540;9.268;2024-01-30T02:35:33;98702.25;;;1.95;100.00
4814;BME280;15375;48.540;9.268;2024-01-30T02:37:59;98680.41;;;1.76;100.00
4814;BME280;15375;48.540;9.268;2024-01-30T02:40:25;98688.06;;;1.65;100.00
4814;BME280;15375;48.540;9.268;2024-01-30T02:42:50;98685.75;;;1.55;100.00
4814;BME280;15375;48.540;9.268;2024-01-30T02:45:15;98680.22;;;1.52;100.00
4814;BME280;15375;48.540;9.268;2024-01-30T02:47:41;98669.22;;;1.36;100.00
4814;BME280;15375;48.540;9.268;2024-01-30T02:50:07;98684.25;;;1.37;100.00
4814;BME280;15375;48.540;9.268;2024-01-30T02:52:32;98685.22;;;1.33;100.00
4814;BME280;15375;48.540;9.268;2024-01-30T02:54:57;98691.44;;;1.24;100.00
4814;BME280;15375;48.540;9.268;2024-01-30T02:57:23;98655.53;;;0.91;100.00
4814;BME280;15375;48.540;9.268;2024-01-30T02:59:48;98693.41;;;1.07;100.00
4814;BME280;15375;48.540;9.268;2024-01-30T03:02:13;98659.53;;;0.85;100.00
4814;BME280;15375;48.540;9.268;2024-01-30T03:04:41;98699.13;;;0.97;100.00
4814;BME280;15375;48.540;9.268;2024-01-30T03:07:06;98680.03;;;0.90;100.00
4814;BME280;15375;48.540;9.268;2024-01-30T03:09:31;98654.19;;;0.68;100.00
4814;BME280;15375;48.540;9.268;2024-01-30T03:11:57;98683.97;;;0.92;100.00
4814;BME280;15375;48.540;9.268;2024-01-30T03:14:22;98672.63;;;0.87;100.00
4814;BME280;15375;48.540;9.268;2024-01-30T03:16:47;98691.06;;;1.05;100.00
4814;BME280;15375;48.540;9.268;2024-01-30T03:19:13;98666.28;;;0.91;100.00
4814;BME280;15375;48.540;9.268;2024-01-30T03:21:38;98682.22;;;0.96;100.00
4814;BME280;15375;48.540;9.268;2024-01-30T03:24:04;98671.34;;;0.84;100.00
4814;BME280;15375;48.540;9.268;2024-01-30T03:26:29;98683.00;;;0.97;100.00
4814;BME280;15375;48.540;9.268;2024-01-30T03:28:54;98663.47;;;0.88;100.00
4814;BME280;15375;48.540;9.268;2024-01-30T03:31:20;98696.72;;;1.12;100.00
4814;BME280;15375;48.540;9.268;2024-01-30T03:33:45;98678.44;;;0.97;100.00
4814;BME280;15375;48.540;9.268;2024-01-30T03:36:10;98648.63;;;0.82;100.00
4814;BME280;15375;48.540;9.268;2024-01-30T03:38:36;98672.09;;;1.02;100.00
4814;BME280;15375;48.540;9.268;2024-01-30T03:41:01;98687.78;;;1.29;100.00
4814;BME280;15375;48.540;9.268;2024-01-30T03:43:27;98684.25;;;1.37;100.00
4814;BME280;15375;48.540;9.268;2024-01-30T03:45:52;98693.75;;;1.35;100.00
4814;BME280;15375;48.540;9.268;2024-01-30T03:48:18;98690.19;;;1.22;100.00
4814;BME280;15375;48.540;9.268;2024-01-30T03:50:44;98660.41;;;0.98;100.00
4814;BME280;15375;48.540;9.268;2024-01-30T03:53:09;98666.44;;;0.86;100.00
4814;BME280;15375;48.540;9.268;2024-01-30T03:55:35;98683.94;;;1.01;100.00
4814;BME280;15375;48.540;9.268;2024-01-30T03:58:00;98680.94;;;1.02;100.00
4814;BME280;15375;48.540;9.268;2024-01-30T04:00:25;98677.31;;;0.98;100.00
4814;BME280;15375;48.540;9.268;2024-01-30T04:02:51;98692.16;;;0.96;100.00
4814;BME280;15375;48.540;9.268;2024-01-30T04:05:16;98701.53;;;0.90;100.00
4814;BME280;15375;48.540;9.268;2024-01-30T04:07:42;98700.22;;;1.04;100.00
4814;BME280;15375;48.540;9.268;2024-01-30T04:10:09;98684.25;;;0.99;100.00
4814;BME280;15375;48.540;9.268;2024-01-30T04:12:35;98681.41;;;0.96;100.00
4814;BME280;15375;48.540;9.268;2024-01-30T04:15:00;98677.66;;;0.88;100.00
4814;BME280;15375;48.540;9.268;2024-01-30T04:17:25;98700.38;;;0.99;100.00
4814;BME280;15375;48.540;9.268;2024-01-30T04:19:51;98703.75;;;0.79;100.00
4814;BME280;15375;48.540;9.268;2024-01-30T04:22:16;98704.09;;;0.69;100.00
4814;BME280;15375;48.540;9.268;2024-01-30T04:24:41;98682.97;;;0.50;100.00
4814;BME280;15375;48.540;9.268;2024-01-30T04:27:07;98709.31;;;0.65;100.00
4814;BME280;15375;48.540;9.268;2024-01-30T04:29:32;98680.09;;;0.64;100.00
4814;BME280;15375;48.540;9.268;2024-01-30T04:31:58;98678.03;;;0.70;100.00
4814;BME280;15375;48.540;9.268;2024-01-30T04:34:24;98674.72;;;0.73;100.00
4814;BME280;15375;48.540;9.268;2024-01-30T04:36:49;98684.19;;;0.70;100.00
4814;BME280;15375;48.540;9.268;2024-01-30T04:39:15;98699.66;;;0.73;100.00
4814;BME280;15375;48.540;9.268;2024-01-30T04:41:40;98674.13;;;0.50;100.00
4814;BME280;15375;48.540;9.268;2024-01-30T04:44:05;98695.28;;;0.60;100.00
4814;BME280;15375;48.540;9.268;2024-01-30T04:46:31;98687.69;;;0.53;100.00
4814;BME280;15375;48.540;9.268;2024-01-30T04:48:56;98694.97;;;0.53;100.00
4814;BME280;15375;48.540;9.268;2024-01-30T04:51:21;98678.72;;;0.41;100.00
4814;BME280;15375;48.540;9.268;2024-01-30T04:53:47;98711.06;;;0.61;100.00
4814;BME280;15375;48.540;9.268;2024-01-30T04:56:12;98695.44;;;0.46;100.00
4814;BME280;15375;48.540;9.268;2024-01-30T04:58:37;98704.59;;;0.45;100.00
4814;BME280;15375;48.540;9.268;2024-01-30T05:01:03;98694.53;;;0.42;100.00
4814;BME280;15375;48.540;9.268;2024-01-30T05:03:28;98687.72;;;0.36;100.00
4814;BME280;15375;48.540;9.268;2024-01-30T05:05:54;98694.34;;;0.47;100.00
4814;BME280;15375;48.540;9.268;2024-01-30T05:08:19;98690.53;;;0.48;100.00
4814;BME280;15375;48.540;9.268;2024-01-30T05:10:44;98676.81;;;0.41;100.00
4814;BME280;15375;48.540;9.268;2024-01-30T05:13:10;98673.50;;;0.44;100.00
4814;BME280;15375;48.540;9.268;2024-01-30T05:15:35;98689.28;;;0.54;100.00
4814;BME280;15375;48.540;9.268;2024-01-30T05:18:01;98705.53;;;0.67;100.00
4814;BME280;15375;48.540;9.268;2024-01-30T05:20:26;98721.75;;;0.79;100.00
4814;BME280;15375;48.540;9.268;2024-01-30T05:22:53;98704.25;;;0.73;100.00
4814;BME280;15375;48.540;9.268;2024-01-30T05:25:19;98696.38;;;0.68;100.00
4814;BME280;15375;48.540;9.268;2024-01-30T05:27:44;98706.78;;;0.69;100.00
4814;BME280;15375;48.540;9.268;2024-01-30T05:30:10;98699.81;;;0.68;100.00
4814;BME280;15375;48.540;9.268;2024-01-30T05:32:36;98674.75;;;0.55;100.00
4814;BME280;15375;48.540;9.268;2024-01-30T05:35:01;98699.53;;;0.61;100.00
4814;BME280;15375;48.540;9.268;2024-01-30T05:37:27;98705.81;;;0.74;100.00
4814;BME280;15375;48.540;9.268;2024-01-30T05:39:52;98695.44;;;0.55;100.00
4814;BME280;15375;48.540;9.268;2024-01-30T05:42:18;98706.94;;;0.55;100.00
4814;BME280;15375;48.540;9.268;2024-01-30T05:44:43;98718.47;;;0.64;100.00
4814;BME280;15375;48.540;9.268;2024-01-30T05:47:09;98699.56;;;0.52;100.00
4814;BME280;15375;48.540;9.268;2024-01-30T05:49:34;98693.69;;;0.50;100.00
4814;BME280;15375;48.540;9.268;2024-01-30T05:52:01;98678.41;;;0.42;100.00
4814;BME280;15375;48.540;9.268;2024-01-30T05:54:27;98682.81;;;0.38;100.00
4814;BME280;15375;48.540;9.268;2024-01-30T05:56:52;98697.03;;;0.30;100.00
4814;BME280;15375;48.540;9.268;2024-01-30T05:59:18;98705.25;;;0.17;100.00
4814;BME280;15375;48.540;9.268;2024-01-30T06:01:47;98722.31;;;0.29;100.00
4814;BME280;15375;48.540;9.268;2024-01-30T06:04:12;98711.56;;;0.29;100.00
4814;BME280;15375;48.540;9.268;2024-01-30T06:06:38;98698.16;;;0.29;100.00
4814;BME280;15375;48.540;9.268;2024-01-30T06:09:03;98718.19;;;0.40;100.00
4814;BME280;15375;48.540;9.268;2024-01-30T06:11:29;98706.03;;;0.43;100.00
4814;BME280;15375;48.540;9.268;2024-01-30T06:13:54;98721.63;;;0.58;100.00
4814;BME280;15375;48.540;9.268;2024-01-30T06:16:19;98707.31;;;0.37;100.00
4814;BME280;15375;48.540;9.268;2024-01-30T06:18:46;98720.88;;;0.49;100.00
4814;BME280;15375;48.540;9.268;2024-01-30T06:21:12;98726.06;;;0.45;100.00
4814;BME280;15375;48.540;9.268;2024-01-30T06:23:38;98702.56;;;0.25;100.00
4814;BME280;15375;48.540;9.268;2024-01-30T06:26:03;98696.25;;;0.21;100.00
4814;BME280;15375;48.540;9.268;2024-01-30T06:28:29;98706.50;;;0.36;100.00
4814;BME280;15375;48.540;9.268;2024-01-30T06:30:54;98697.50;;;0.41;100.00
4814;BME280;15375;48.540;9.268;2024-01-30T06:33:19;98707.78;;;0.47;100.00
4814;BME280;15375;48.540;9.268;2024-01-30T06:35:45;98698.78;;;0.35;100.00
4814;BME280;15375;48.540;9.268;2024-01-30T06:38:11;98717.41;;;0.40;100.00
4814;BME280;15375;48.540;9.268;2024-01-30T06:40:36;98704.59;;;0.45;100.00
4814;BME280;15375;48.540;9.268;2024-01-30T06:43:03;98709.53;;;0.35;100.00
4814;BME280;15375;48.540;9.268;2024-01-30T06:45:29;98704.59;;;0.45;100.00
4814;BME280;15375;48.540;9.268;2024-01-30T06:47:54;98705.09;;;0.39;100.00
4814;BME280;15375;48.540;9.268;2024-01-30T06:50:20;98721.97;;;0.56;100.00
4814;BME280;15375;48.540;9.268;2024-01-30T06:52:45;98727.81;;;0.58;100.00
4814;BME280;15375;48.540;9.268;2024-01-30T06:55:11;98720.69;;;0.45;100.00
4814;BME280;15375;48.540;9.268;2024-01-30T06:57:36;98733.97;;;0.50;100.00
4814;BME280;15375;48.540;9.268;2024-01-30T07:00:02;98718.84;;;0.37;100.00
4814;BME280;15375;48.540;9.268;2024-01-30T07:02:27;98730.34;;;0.46;100.00
4814;BME280;15375;48.540;9.268;2024-01-30T07:04:53;98730.66;;;0.53;100.00
4814;BME280;15375;48.540;9.268;2024-01-30T07:07:18;98707.13;;;0.33;100.00
4814;BME280;15375;48.540;9.268;2024-01-30T07:09:44;98697.66;;;0.36;100.00
4814;BME280;15375;48.540;9.268;2024-01-30T07:12:09;98712.47;;;0.50;100.00
4814;BME280;15375;48.540;9.268;2024-01-30T07:14:35;98720.88;;;0.57;100.00
4814;BME280;15375;48.540;9.268;2024-01-30T07:17:01;98743.41;;;0.74;100.00
4814;BME280;15375;48.540;9.268;2024-01-30T07:19:26;98697.81;;;0.48;100.00
4814;BME280;15375;48.540;9.268;2024-01-30T07:21:52;98738.03;;;0.74;100.00
4814;BME280;15375;48.540;9.268;2024-01-30T07:24:17;98732.22;;;0.72;100.00
4814;BME280;15375;48.540;9.268;2024-01-30T07:26:42;98745.31;;;0.73;100.00
4814;BME280;15375;48.540;9.268;2024-01-30T07:29:07;98738.03;;;0.74;100.00
4814;BME280;15375;48.540;9.268;2024-01-30T07:31:33;98734.88;;;0.80;100.00
4814;BME280;15375;48.540;9.268;2024-01-30T07:33:58;98742.28;;;0.92;100.00
4814;BME280;15375;48.540;9.268;2024-01-30T07:36:23;98738.97;;;0.95;100.00
4814;BME280;15375;48.540;9.268;2024-01-30T07:38:49;98732.59;;;1.08;100.00
4814;BME280;15375;48.540;9.268;2024-01-30T07:41:14;98735.41;;;1.20;100.00
4814;BME280;15375;48.540;9.268;2024-01-30T07:43:39;98744.81;;;1.43;100.00
4814;BME280;15375;48.540;9.268;2024-01-30T07:46:05;98746.94;;;1.58;100.00
4814;BME280;15375;48.540;9.268;2024-01-30T07:48:34;98663.66;;;1.12;100.00
4814;BME280;15375;48.540;9.268;2024-01-30T07:51:00;98719.81;;;1.72;100.00
4814;BME280;15375;48.540;9.268;2024-01-30T07:53:25;98727.66;;;1.85;100.00
4814;BME280;15375;48.540;9.268;2024-01-30T07:55:52;98746.88;;;2.17;100.00
4814;BME280;15375;48.540;9.268;2024-01-30T07:58:17;98722.28;;;2.27;100.00
4814;BME280;15375;48.540;9.268;2024-01-30T08:00:44;98704.00;;;2.32;100.00
4814;BME280;15375;48.540;9.268;2024-01-30T08:03:09;98723.34;;;2.67;100.00
4814;BME280;15375;48.540;9.268;2024-01-30T08:05:34;98683.63;;;2.64;100.00
4814;BME280;15375;48.540;9.268;2024-01-30T08:07:59;98717.81;;;2.96;100.00
4814;BME280;15375;48.540;9.268;2024-01-30T08:10:25;98699.84;;;3.00;100.00
4814;BME280;15375;48.540;9.268;2024-01-30T08:12:50;98719.00;;;3.32;100.00
4814;BME280;15375;48.540;9.268;2024-01-30T08:15:15;98723.28;;;3.57;100.00
4814;BME280;15375;48.540;9.268;2024-01-30T08:17:41;98719.78;;;3.68;100.00
4814;BME280;15375;48.540;9.268;2024-01-30T08:20:07;98717.63;;;3.86;100.00
4814;BME280;15375;48.540;9.268;2024-01-30T08:22:33;98724.84;;;3.82;100.00
4814;BME280;15375;48.540;9.268;2024-01-30T08:24:59;98719.78;;;3.93;100.00
4814;BME280;15375;48.540;9.268;2024-01-30T08:27:24;98693.16;;;3.67;100.00
4814;BME280;15375;48.540;9.268;2024-01-30T08:29:49;98715.63;;;3.95;100.00
4814;BME280;15375;48.540;9.268;2024-01-30T08:32:15;98722.31;;;4.13;100.00
4814;BME280;15375;48.540;9.268;2024-01-30T08:34:40;98727.69;;;4.25;100.00
4814;BME280;15375;48.540;9.268;2024-01-30T08:37:06;98714.94;;;4.38;100.00
4814;BME280;15375;48.540;9.268;2024-01-30T08:39:31;98700.41;;;4.70;98.58
4814;BME280;15375;48.540;9.268;2024-01-30T08:41:56;98686.13;;;4.85;93.56
4814;BME280;15375;48.540;9.268;2024-01-30T08:44:23;98690.44;;;5.18;90.11
4814;BME280;15375;48.540;9.268;2024-01-30T08:46:48;98693.38;;;5.59;90.13
4814;BME280;15375;48.540;9.268;2024-01-30T08:49:16;98667.38;;;5.55;84.78
4814;BME280;15375;48.540;9.268;2024-01-30T08:51:41;98695.28;;;6.09;84.63
4814;BME280;15375;48.540;9.268;2024-01-30T08:54:07;98699.75;;;6.02;81.57
4814;BME280;15375;48.540;9.268;2024-01-30T08:56:32;98691.41;;;6.26;81.53
4814;BME280;15375;48.540;9.268;2024-01-30T08:58:57;98701.09;;;6.65;81.64
4814;BME280;15375;48.540;9.268;2024-01-30T09:01:23;98708.38;;;6.61;79.99
4814;BME280;15375;48.540;9.268;2024-01-30T09:03:48;98701.31;;;6.57;78.97
4814;BME280;15375;48.540;9.268;2024-01-30T09:06:14;98699.66;;;6.52;77.90
4814;BME280;15375;48.540;9.268;2024-01-30T09:08:39;98717.06;;;6.70;78.94
4814;BME280;15375;48.540;9.268;2024-01-30T09:11:14;98723.25;;;6.90;77.35
4814;BME280;15375;48.540;9.268;2024-01-30T09:13:40;98714.47;;;6.96;74.45
4814;BME280;15375;48.540;9.268;2024-01-30T09:16:06;98721.34;;;7.13;73.39
4814;BME280;15375;48.540;9.268;2024-01-30T09:18:32;98699.09;;;6.81;73.37
4814;BME280;15375;48.540;9.268;2024-01-30T09:20:57;98708.34;;;6.80;74.58
4814;BME280;15375;48.540;9.268;2024-01-30T09:23:23;98719.31;;;6.87;74.64
4814;BME280;15375;48.540;9.268;2024-01-30T09:25:49;98718.84;;;6.82;74.64
4814;BME280;15375;48.540;9.268;2024-01-30T09:28:15;98726.94;;;7.01;73.68
4814;BME280;15375;48.540;9.268;2024-01-30T09:30:40;98727.50;;;6.49;74.87
4814;BME280;15375;48.540;9.268;2024-01-30T09:33:06;98716.34;;;6.16;76.94
4814;BME280;15375;48.540;9.268;2024-01-30T09:35:32;98723.97;;;6.10;78.92
4814;BME280;15375;48.540;9.268;2024-01-30T09:37:58;98721.75;;;6.16;78.52
4814;BME280;15375;48.540;9.268;2024-01-30T09:40:24;98717.22;;;6.39;79.13
4814;BME280;15375;48.540;9.268;2024-01-30T09:42:50;98719.91;;;6.77;78.55
4814;BME280;15375;48.540;9.268;2024-01-30T09:45:18;98729.88;;;6.92;78.94
4814;BME280;15375;48.540;9.268;2024-01-30T09:47:45;98719.84;;;7.16;77.16
4814;BME280;15375;48.540;9.268;2024-01-30T09:50:12;98731.91;;;7.18;76.68
4814;BME280;15375;48.540;9.268;2024-01-30T09:52:38;98723.81;;;6.99;76.80
4814;BME280;15375;48.540;9.268;2024-01-30T09:55:05;98717.59;;;6.98;77.81
4814;BME280;15375;48.540;9.268;2024-01-30T09:57:31;98675.03;;;6.80;77.56
4814;BME280;15375;48.540;9.268;2024-01-30T09:59:56;98723.16;;;7.05;77.28
4814;BME280;15375;48.540;9.268;2024-01-30T10:02:22;98728.69;;;7.13;79.11
4814;BME280;15375;48.540;9.268;2024-01-30T10:04:48;98724.63;;;7.22;77.87
4814;BME280;15375;48.540;9.268;2024-01-30T10:07:15;98715.09;;;7.32;75.87
4814;BME280;15375;48.540;9.268;2024-01-30T10:09:40;98721.53;;;7.69;76.07
4814;BME280;15375;48.540;9.268;2024-01-30T10:12:06;98740.34;;;8.07;75.59
4814;BME280;15375;48.540;9.268;2024-01-30T10:14:31;98714.00;;;8.11;76.79
4814;BME280;15375;48.540;9.268;2024-01-30T10:16:57;98735.91;;;8.52;74.41
4814;BME280;15375;48.540;9.268;2024-01-30T10:19:23;98722.13;;;8.67;73.63
4814;BME280;15375;48.540;9.268;2024-01-30T10:21:48;98720.53;;;8.63;67.66
4814;BME280;15375;48.540;9.268;2024-01-30T10:24:14;98704.94;;;8.60;70.13
4814;BME280;15375;48.540;9.268;2024-01-30T10:26:39;98713.28;;;8.44;69.70
4814;BME280;15375;48.540;9.268;2024-01-30T10:29:05;98728.31;;;8.34;70.40
4814;BME280;15375;48.540;9.268;2024-01-30T10:31:30;98720.16;;;8.34;71.43
4814;BME280;15375;48.540;9.268;2024-01-30T10:33:56;98707.69;;;8.30;70.77
4814;BME280;15375;48.540;9.268;2024-01-30T10:36:28;98726.75;;;8.33;71.43
4814;BME280;15375;48.540;9.268;2024-01-30T10:38:59;98730.03;;;8.20;73.09
4814;BME280;15375;48.540;9.268;2024-01-30T10:41:31;98724.06;;;8.11;73.45
4814;BME280;15375;48.540;9.268;2024-01-30T10:44:12;98737.19;;;7.79;75.05
4814;BME280;15375;48.540;9.268;2024-01-30T10:46:42;98715.03;;;7.51;76.79
4814;BME280;15375;48.540;9.268;2024-01-30T10:49:12;98726.00;;;7.58;76.40
4814;BME280;15375;48.540;9.268;2024-01-30T10:51:39;98716.03;;;7.65;76.62
4814;BME280;15375;48.540;9.268;2024-01-30T10:54:05;98713.16;;;7.81;74.53
4814;BME280;15375;48.540;9.268;2024-01-30T10:56:32;98722.50;;;7.80;73.87
4814;BME280;15375;48.540;9.268;2024-01-30T10:58:59;98701.88;;;7.53;75.78
4814;BME280;15375;48.540;9.268;2024-01-30T11:01:25;98704.34;;;7.61;76.41
4814;BME280;15375;48.540;9.268;2024-01-30T11:03:52;98691.97;;;7.64;77.55
4814;BME280;15375;48.540;9.268;2024-01-30T11:06:18;98714.47;;;8.17;75.90
4814;BME280;15375;48.540;9.268;2024-01-30T11:08:46;98700.09;;;8.43;76.26
4814;BME280;15375;48.540;9.268;2024-01-30T11:11:25;98709.72;;;8.70;75.82
4814;BME280;15375;48.540;9.268;2024-01-30T11:13:50;98705.19;;;8.81;75.94
4814;BME280;15375;48.540;9.268;2024-01-30T11:16:15;98693.19;;;8.85;76.41
4814;BME280;15375;48.540;9.268;2024-01-30T11:18:40;98710.31;;;9.26;76.27
4814;BME280;15375;48.540;9.268;2024-01-30T11:21:06;98689.41;;;9.34;73.56
4814;BME280;15375;48.540;9.268;2024-01-30T11:23:33;98697.22;;;9.39;72.55
4814;BME280;15375;48.540;9.268;2024-01-30T11:25:59;98692.41;;;9.25;71.75
4814;BME280;15375;48.540;9.268;2024-01-30T11:28:32;98686.31;;;9.39;72.46
4814;BME280;15375;48.540;9.268;2024-01-30T11:31:07;98701.34;;;9.70;70.82
4814;BME280;15375;48.540;9.268;2024-01-30T11:33:33;98690.59;;;9.91;70.31
4814;BME280;15375;48.540;9.268;2024-01-30T11:35:59;98678.22;;;10.04;65.28
4814;BME280;15375;48.540;9.268;2024-01-30T11:38:26;98686.91;;;10.23;64.70
4814;BME280;15375;48.540;9.268;2024-01-30T11:40:55;98683.47;;;10.34;64.02
4814;BME280;15375;48.540;9.268;2024-01-30T11:43:22;98682.69;;;10.37;63.96
4814;BME280;15375;48.540;9.268;2024-01-30T11:45:48;98670.59;;;10.38;62.52
4814;BME280;15375;48.540;9.268;2024-01-30T11:48:14;98662.81;;;10.40;62.55
4814;BME280;15375;48.540;9.268;2024-01-30T11:50:40;98677.31;;;10.58;63.34
4814;BME280;15375;48.540;9.268;2024-01-30T11:53:06;98669.94;;;10.65;61.90
4814;BME280;15375;48.540;9.268;2024-01-30T11:55:32;98669.50;;;10.49;62.86
4814;BME280;15375;48.540;9.268;2024-01-30T11:57:58;98670.72;;;10.73;59.41
4814;BME280;15375;48.540;9.268;2024-01-30T12:00:23;98654.78;;;10.78;58.08
4814;BME280;15375;48.540;9.268;2024-01-30T12:02:50;98648.56;;;10.92;57.52
4814;BME280;15375;48.540;9.268;2024-01-30T12:05:16;98651.28;;;10.96;56.83
4814;BME280;15375;48.540;9.268;2024-01-30T12:07:45;98654.44;;;11.12;57.59
4814;BME280;15375;48.540;9.268;2024-01-30T12:10:12;98665.75;;;11.14;58.70
4814;BME280;15375;48.540;9.268;2024-01-30T12:12:39;98640.38;;;11.03;55.87
4814;BME280;15375;48.540;9.268;2024-01-30T12:15:06;98648.56;;;11.03;56.06
4814;BME280;15375;48.540;9.268;2024-01-30T12:17:33;98645.47;;;11.04;54.92
4814;BME280;15375;48.540;9.268;2024-01-30T12:25:24;98645.06;;;11.30;56.65
4814;BME280;15375;48.540;9.268;2024-01-30T12:27:50;98640.78;;;11.47;57.12
4814;BME280;15375;48.540;9.268;2024-01-30T12:30:17;98633.38;;;11.44;56.69
4814;BME280;15375;48.540;9.268;2024-01-30T12:32:47;98643.91;;;11.60;57.24
4814;BME280;15375;48.540;9.268;2024-01-30T12:35:19;98625.19;;;11.54;56.90
4814;BME280;15375;48.540;9.268;2024-01-30T12:37:46;98626.72;;;11.63;56.85
4814;BME280;15375;48.540;9.268;2024-01-30T12:40:13;98629.88;;;11.75;56.58
4814;BME280;15375;48.540;9.268;2024-01-30T12:42:40;98627.50;;;11.84;56.80
4814;BME280;15375;48.540;9.268;2024-01-30T12:45:08;98613.03;;;11.87;56.53
4814;BME280;15375;48.540;9.268;2024-01-30T12:47:33;98623.94;;;12.01;55.83
4814;BME280;15375;48.540;9.268;2024-01-30T12:49:59;98613.38;;;12.03;56.31
4814;BME280;15375;48.540;9.268;2024-01-30T12:52:24;98627.78;;;12.11;55.70
4814;BME280;15375;48.540;9.268;2024-01-30T12:54:51;98629.31;;;12.30;55.92
4814;BME280;15375;48.540;9.268;2024-01-30T12:57:17;98621.44;;;12.39;54.82
4814;BME280;15375;48.540;9.268;2024-01-30T12:59:43;98623.34;;;12.49;54.35
4814;BME280;15375;48.540;9.268;2024-01-30T13:02:09;98626.72;;;12.74;53.17
4814;BME280;15375;48.540;9.268;2024-01-30T13:04:35;98609.50;;;12.80;52.67
4814;BME280;15375;48.540;9.268;2024-01-30T13:07:00;98622.19;;;13.12;53.15
4814;BME280;15375;48.540;9.268;2024-01-30T13:09:26;98618.31;;;13.09;51.44
4814;BME280;15375;48.540;9.268;2024-01-30T13:11:51;98621.06;;;13.02;50.59